Time;durP1;ratioP1;P1;durP2;ratioP2;P2;SDS_P1;SDS_P2;PMS_P1;PMS_P2;Temp;Humidity;BMP_temperature;BMP_pressure;BME280_temperature;BME280_humidity;BME280_pressure;Samples;Min_cycle;Max_cycle;Signal;HPM_P1;HPM_P2
2023/08/18 00:01:42;;;;;;;4.45;3.40;;;;;;;;;;5076505;28;20036;-59
2023/08/18 00:04:08;;;;;;;5.55;3.38;;;;;;;;;;5076552;28;20040;-59
2023/08/18 00:06:34;;;;;;;4.32;2.88;;;;;;;;;;5076478;28;20025;-59
2023/08/18 00:09:00;;;;;;;6.93;3.20;;;;;;;;;;5076389;28;20032;-59
2023/08/18 00:11:26;;;;;;;3.70;3.08;;;;;;;;;;5076435;28;20374;-59
2023/08/18 00:13:52;;;;;;;4.80;3.20;;;;;;;;;;5076667;28;20465;-59
2023/08/18 00:16:17;;;;;;;6.05;3.40;;;;;;;;;;5076292;28;20466;-59
2023/08/18 00:18:43;;;;;;;5.28;3.47;;;;;;;;;;5075999;28;20378;-59
2023/08/18 00:21:09;;;;;;;3.85;2.85;;;;;;;;;;5076731;28;20456;-59
2023/08/18 00:23:35;;;;;;;4.07;3.30;;;;;;;;;;5076761;28;20020;-59
2023/08/18 00:26:01;;;;;;;6.95;3.38;;;;;;;;;;5076475;28;20020;-59
2023/08/18 00:28:30;;;;;;;4.07;3.20;;;;;;;;;;5075878;28;20029;-59
2023/08/18 00:30:56;;;;;;;3.47;3.03;;;;;;;;;;5075048;28;20020;-59
2023/08/18 00:33:22;;;;;;;3.38;2.75;;;;;;;;;;5076003;28;20089;-59
2023/08/18 00:35:48;;;;;;;3.15;2.50;;;;;;;;;;5075921;28;20189;-59
2023/08/18 00:38:14;;;;;;;5.55;3.13;;;;;;;;;;5075771;28;20033;-59
2023/08/18 00:40:39;;;;;;;3.30;2.67;;;;;;;;;;5076419;28;20027;-59
2023/08/18 00:43:05;;;;;;;3.83;3.20;;;;;;;;;;5076564;28;20053;-59
2023/08/18 00:45:32;;;;;;;5.28;3.00;;;;;;;;;;5076021;28;20020;-59
2023/08/18 00:47:58;;;;;;;4.35;2.85;;;;;;;;;;5075458;28;20430;-59
2023/08/18 00:50:24;;;;;;;4.25;2.42;;;;;;;;;;5076281;28;20028;-59
2023/08/18 00:52:56;;;;;;;4.07;2.90;;;;;;;;;;5076161;28;20025;-59
2023/08/18 00:55:23;;;;;;;3.75;2.38;;;;;;;;;;5076384;28;20012;-59
2023/08/18 00:57:49;;;;;;;3.95;3.08;;;;;;;;;;5075558;28;20024;-59
2023/08/18 01:00:15;;;;;;;3.30;2.70;;;;;;;;;;5075955;28;20036;-59
2023/08/18 01:02:44;;;;;;;5.93;3.65;;;;;;;;;;5075673;28;20024;-59
2023/08/18 01:05:10;;;;;;;4.13;2.50;;;;;;;;;;5075054;28;20500;-59
2023/08/18 01:07:36;;;;;;;4.28;3.30;;;;;;;;;;5075057;28;20091;-59
2023/08/18 01:10:02;;;;;;;6.80;3.33;;;;;;;;;;5075503;28;20120;-59
2023/08/18 01:12:51;;;;;;;4.30;3.63;;;;;;;;;;5075500;28;20039;-59
2023/08/18 01:15:19;;;;;;;7.18;3.42;;;;;;;;;;5075746;28;20070;-60
2023/08/18 01:17:52;;;;;;;4.18;2.65;;;;;;;;;;5075663;28;20086;-59
2023/08/18 01:20:18;;;;;;;4.32;2.92;;;;;;;;;;5075033;28;20043;-59
2023/08/18 01:22:45;;;;;;;3.78;3.10;;;;;;;;;;5075025;28;20073;-59
2023/08/18 01:25:11;;;;;;;3.80;3.13;;;;;;;;;;5074954;28;20050;-59
2023/08/18 01:27:37;;;;;;;5.25;3.10;;;;;;;;;;5074863;28;20027;-59
2023/08/18 01:30:04;;;;;;;3.72;3.00;;;;;;;;;;5074904;28;20021;-59
2023/08/18 01:32:31;;;;;;;4.57;3.10;;;;;;;;;;5074890;28;20031;-60
2023/08/18 01:35:00;;;;;;;3.92;2.85;;;;;;;;;;5075412;28;20032;-59
2023/08/18 01:37:26;;;;;;;4.20;3.38;;;;;;;;;;5074641;28;20070;-59
2023/08/18 01:39:53;;;;;;;3.15;2.45;;;;;;;;;;5075464;28;20032;-59
2023/08/18 01:42:19;;;;;;;7.47;3.30;;;;;;;;;;5074564;28;20395;-59
2023/08/18 01:44:45;;;;;;;6.13;2.80;;;;;;;;;;5074277;28;20485;-59
2023/08/18 01:47:11;;;;;;;6.82;3.30;;;;;;;;;;5074993;28;20029;-59
2023/08/18 01:49:37;;;;;;;4.75;3.03;;;;;;;;;;5074414;28;20032;-59
2023/08/18 01:52:03;;;;;;;5.75;3.22;;;;;;;;;;5074475;28;20024;-59
2023/08/18 01:54:29;;;;;;;3.58;2.92;;;;;;;;;;5074961;28;20060;-59
2023/08/18 01:56:54;;;;;;;4.00;2.97;;;;;;;;;;5075117;28;20443;-59
2023/08/18 01:59:20;;;;;;;4.40;2.70;;;;;;;;;;5074561;28;20032;-59
2023/08/18 02:01:46;;;;;;;5.15;2.83;;;;;;;;;;5075144;28;20021;-59
2023/08/18 02:04:12;;;;;;;4.47;2.28;;;;;;;;;;5074786;28;20021;-59
2023/08/18 02:06:38;;;;;;;4.75;2.97;;;;;;;;;;5074752;28;20025;-59
2023/08/18 02:09:05;;;;;;;4.03;2.75;;;;;;;;;;5074506;28;20025;-59
2023/08/18 02:11:31;;;;;;;4.20;2.38;;;;;;;;;;5074172;28;20023;-59
2023/08/18 02:13:57;;;;;;;3.83;2.67;;;;;;;;;;5074483;28;20028;-59
2023/08/18 02:16:23;;;;;;;3.80;2.63;;;;;;;;;;5074036;28;20013;-59
2023/08/18 02:18:49;;;;;;;7.78;2.83;;;;;;;;;;5074232;28;20032;-59
2023/08/18 02:21:15;;;;;;;4.35;2.75;;;;;;;;;;5074518;28;20103;-59
2023/08/18 02:23:41;;;;;;;3.85;2.80;;;;;;;;;;5073980;28;20017;-59
2023/08/18 02:26:07;;;;;;;3.47;2.67;;;;;;;;;;5073841;28;20074;-59
2023/08/18 02:28:34;;;;;;;4.18;2.65;;;;;;;;;;5074234;28;20032;-59
2023/08/18 02:31:03;;;;;;;4.28;2.88;;;;;;;;;;5074691;28;20031;-59
2023/08/18 02:33:30;;;;;;;4.97;2.95;;;;;;;;;;5073798;28;20016;-59
2023/08/18 02:35:56;;;;;;;5.47;2.20;;;;;;;;;;5074277;28;20493;-59
2023/08/18 02:38:22;;;;;;;4.90;3.03;;;;;;;;;;5073328;28;20494;-59
2023/08/18 02:40:48;;;;;;;4.32;2.90;;;;;;;;;;5074277;28;20039;-59
2023/08/18 02:43:13;;;;;;;3.75;3.00;;;;;;;;;;5074514;28;20056;-59
2023/08/18 02:45:39;;;;;;;3.75;2.65;;;;;;;;;;5073654;28;20116;-59
2023/08/18 02:48:05;;;;;;;4.03;2.65;;;;;;;;;;5074342;28;20024;-59
2023/08/18 02:50:31;;;;;;;3.13;2.78;;;;;;;;;;5073608;28;20012;-59
2023/08/18 02:53:00;;;;;;;6.22;2.78;;;;;;;;;;5072773;28;20050;-59
2023/08/18 02:55:27;;;;;;;3.53;2.85;;;;;;;;;;5073531;28;20370;-59
2023/08/18 02:57:53;;;;;;;5.28;2.95;;;;;;;;;;5073446;28;20031;-59
2023/08/18 03:00:22;;;;;;;3.50;2.47;;;;;;;;;;5073753;28;20028;-59
2023/08/18 03:02:49;;;;;;;3.97;2.97;;;;;;;;;;5073657;28;20393;-59
2023/08/18 03:05:15;;;;;;;5.10;3.28;;;;;;;;;;5073445;28;20037;-59
2023/08/18 03:07:41;;;;;;;6.72;3.10;;;;;;;;;;5073927;28;20048;-59
2023/08/18 03:10:07;;;;;;;3.80;2.85;;;;;;;;;;5073725;28;20052;-59
2023/08/18 03:12:33;;;;;;;4.22;3.38;;;;;;;;;;5073277;28;20374;-59
2023/08/18 03:14:59;;;;;;;4.47;2.55;;;;;;;;;;5073314;28;20017;-59
2023/08/18 03:17:25;;;;;;;4.95;3.00;;;;;;;;;;5073624;28;20031;-59
2023/08/18 03:19:51;;;;;;;5.72;2.78;;;;;;;;;;5073831;28;20043;-59
2023/08/18 03:22:17;;;;;;;4.32;2.80;;;;;;;;;;5073563;28;20019;-59
2023/08/18 03:24:43;;;;;;;4.80;2.83;;;;;;;;;;5073257;28;20102;-59
2023/08/18 03:27:09;;;;;;;4.78;3.47;;;;;;;;;;5073263;28;20020;-59
2023/08/18 03:29:35;;;;;;;7.97;3.25;;;;;;;;;;5073239;28;20028;-59
2023/08/18 03:32:01;;;;;;;4.57;3.42;;;;;;;;;;5073914;28;20359;-59
2023/08/18 03:34:27;;;;;;;3.33;2.40;;;;;;;;;;5072871;28;20495;-59
2023/08/18 03:36:53;;;;;;;10.05;3.45;;;;;;;;;;5073090;28;20063;-59
2023/08/18 03:39:19;;;;;;;4.18;3.00;;;;;;;;;;5073342;28;20047;-59
2023/08/18 03:41:45;;;;;;;3.47;3.10;;;;;;;;;;5072843;28;20547;-59
2023/08/18 03:44:12;;;;;;;4.82;3.20;;;;;;;;;;5073051;28;20060;-59
2023/08/18 03:46:38;;;;;;;3.10;2.47;;;;;;;;;;5073322;28;20033;-59
2023/08/18 03:49:05;;;;;;;4.57;3.45;;;;;;;;;;5073338;28;20028;-59
2023/08/18 03:51:32;;;;;;;3.88;2.70;;;;;;;;;;5072978;28;20025;-59
2023/08/18 03:53:57;;;;;;;5.13;3.15;;;;;;;;;;5073463;28;20112;-59
2023/08/18 03:56:23;;;;;;;3.45;2.88;;;;;;;;;;5072629;28;20103;-59
2023/08/18 03:58:49;;;;;;;3.67;2.78;;;;;;;;;;5072569;28;20028;-59
2023/08/18 04:01:15;;;;;;;3.90;2.92;;;;;;;;;;5073156;28;20127;-59
2023/08/18 04:03:43;;;;;;;3.78;2.40;;;;;;;;;;5073553;28;20048;-59
2023/08/18 04:06:09;;;;;;;9.05;2.65;;;;;;;;;;5076452;28;20111;-59
2023/08/18 04:08:39;;;;;;;4.25;2.97;;;;;;;;;;5076781;28;20031;-59
2023/08/18 04:11:05;;;;;;;4.82;3.40;;;;;;;;;;5076994;28;20029;-59
2023/08/18 04:13:31;;;;;;;4.18;2.15;;;;;;;;;;5076276;28;20420;-59
2023/08/18 04:15:57;;;;;;;5.05;3.40;;;;;;;;;;5076371;28;20069;-59
2023/08/18 04:18:23;;;;;;;4.18;3.28;;;;;;;;;;5076665;28;20451;-58
2023/08/18 04:20:49;;;;;;;4.03;2.83;;;;;;;;;;5076816;28;20359;-59
2023/08/18 04:23:15;;;;;;;3.63;3.03;;;;;;;;;;5076516;28;20024;-59
2023/08/18 04:25:44;;;;;;;5.03;3.35;;;;;;;;;;5076648;28;20025;-58
2023/08/18 04:28:10;;;;;;;3.58;2.83;;;;;;;;;;5076039;28;20056;-59
2023/08/18 04:30:35;;;;;;;3.08;2.67;;;;;;;;;;5076899;28;20384;-58
2023/08/18 04:33:02;;;;;;;4.82;3.28;;;;;;;;;;5075738;28;20020;-59
2023/08/18 04:35:28;;;;;;;4.07;3.00;;;;;;;;;;5076473;28;20401;-59
2023/08/18 04:37:54;;;;;;;3.47;3.00;;;;;;;;;;5075883;28;20089;-58
2023/08/18 04:40:19;;;;;;;4.97;3.22;;;;;;;;;;5076526;28;20032;-59
2023/08/18 04:42:45;;;;;;;4.45;2.75;;;;;;;;;;5075934;28;20133;-59
2023/08/18 04:45:11;;;;;;;4.38;2.38;;;;;;;;;;5076219;28;20028;-59
2023/08/18 04:47:37;;;;;;;3.75;3.00;;;;;;;;;;5076177;28;20460;-59
2023/08/18 04:50:06;;;;;;;4.15;3.20;;;;;;;;;;5075794;28;20033;-59
2023/08/18 04:52:32;;;;;;;4.68;2.65;;;;;;;;;;5075309;28;20481;-59
2023/08/18 04:54:58;;;;;;;3.47;3.05;;;;;;;;;;5075540;28;20024;-59
2023/08/18 04:57:24;;;;;;;4.18;3.58;;;;;;;;;;5075752;28;20024;-59
2023/08/18 04:59:50;;;;;;;3.88;3.35;;;;;;;;;;5076206;28;20059;-59
2023/08/18 05:02:16;;;;;;;4.40;3.05;;;;;;;;;;5075787;28;20024;-58
2023/08/18 05:04:42;;;;;;;4.95;3.10;;;;;;;;;;5075934;28;20461;-59
2023/08/18 05:07:08;;;;;;;5.22;3.72;;;;;;;;;;5075399;28;20025;-59
2023/08/18 05:09:34;;;;;;;5.10;4.20;;;;;;;;;;5075801;28;20028;-59
2023/08/18 05:12:01;;;;;;;3.85;3.25;;;;;;;;;;5076036;28;20112;-58
2023/08/18 05:14:27;;;;;;;4.10;3.00;;;;;;;;;;5075618;28;20070;-59
2023/08/18 05:16:53;;;;;;;6.57;3.35;;;;;;;;;;5074501;28;20020;-59
2023/08/18 05:19:19;;;;;;;4.10;3.22;;;;;;;;;;5075467;28;20115;-58
2023/08/18 05:21:45;;;;;;;4.57;3.15;;;;;;;;;;5075055;28;20020;-59
2023/08/18 05:24:11;;;;;;;4.10;3.25;;;;;;;;;;5075023;28;20106;-58
2023/08/18 05:26:37;;;;;;;4.72;3.40;;;;;;;;;;5075016;28;20071;-58
2023/08/18 05:29:04;;;;;;;4.20;3.63;;;;;;;;;;5075536;28;20078;-59
2023/08/18 05:31:30;;;;;;;5.40;3.63;;;;;;;;;;5074898;28;20024;-58
2023/08/18 05:33:57;;;;;;;4.60;3.38;;;;;;;;;;5075605;28;20036;-59
2023/08/18 05:36:23;;;;;;;2.80;2.35;;;;;;;;;;5075271;28;20025;-59
2023/08/18 05:38:49;;;;;;;3.08;2.75;;;;;;;;;;5075253;28;20348;-58
2023/08/18 05:41:15;;;;;;;6.32;3.05;;;;;;;;;;5075209;28;20354;-58
2023/08/18 05:43:41;;;;;;;8.77;2.47;;;;;;;;;;5074630;28;20079;-59
2023/08/18 05:46:08;;;;;;;3.00;2.35;;;;;;;;;;5074580;28;20028;-59
2023/08/18 05:48:34;;;;;;;3.78;2.50;;;;;;;;;;5074552;28;20116;-59
2023/08/18 05:51:00;;;;;;;3.70;2.38;;;;;;;;;;5074494;28;20099;-59
2023/08/18 05:53:26;;;;;;;3.17;2.28;;;;;;;;;;5074537;28;20031;-59
2023/08/18 05:55:52;;;;;;;3.00;2.33;;;;;;;;;;5074397;28;20024;-59
2023/08/18 05:58:19;;;;;;;7.78;2.95;;;;;;;;;;5073878;28;20477;-59
2023/08/18 06:00:47;;;;;;;4.07;2.28;;;;;;;;;;5074089;28;20031;-59
2023/08/18 06:03:13;;;;;;;3.85;2.10;;;;;;;;;;5074561;28;20032;-59
2023/08/18 06:05:39;;;;;;;3.50;2.88;;;;;;;;;;5074192;28;20017;-59
2023/08/18 06:08:05;;;;;;;3.40;2.28;;;;;;;;;;5074516;28;20107;-59
2023/08/18 06:10:31;;;;;;;3.95;2.70;;;;;;;;;;5074743;28;20021;-59
2023/08/18 06:12:57;;;;;;;2.92;2.10;;;;;;;;;;5074138;28;20028;-59
2023/08/18 06:15:24;;;;;;;2.58;1.95;;;;;;;;;;5074283;28;20017;-59
2023/08/18 06:17:50;;;;;;;3.67;2.42;;;;;;;;;;5074876;28;20032;-59
2023/08/18 06:20:16;;;;;;;3.42;2.55;;;;;;;;;;5074459;28;20033;-59
2023/08/18 06:22:42;;;;;;;3.83;2.58;;;;;;;;;;5074196;28;20362;-59
2023/08/18 06:25:08;;;;;;;3.03;2.20;;;;;;;;;;5074218;28;20037;-59
2023/08/18 06:27:34;;;;;;;3.42;2.30;;;;;;;;;;5074145;28;20029;-59
2023/08/18 06:30:00;;;;;;;4.10;2.80;;;;;;;;;;5073889;28;20103;-59
2023/08/18 06:32:26;;;;;;;4.15;2.63;;;;;;;;;;5073790;28;20032;-59
2023/08/18 06:34:52;;;;;;;3.83;2.42;;;;;;;;;;5073856;28;20052;-58
2023/08/18 06:37:19;;;;;;;4.05;2.53;;;;;;;;;;5073928;28;20052;-59
2023/08/18 06:39:45;;;;;;;5.82;2.88;;;;;;;;;;5074171;28;20028;-59
2023/08/18 06:42:13;;;;;;;4.10;2.45;;;;;;;;;;5073536;28;20048;-59
2023/08/18 06:44:39;;;;;;;3.85;2.63;;;;;;;;;;5073038;28;20471;-59
2023/08/18 06:47:05;;;;;;;3.70;2.97;;;;;;;;;;5074015;28;20031;-59
2023/08/18 06:49:31;;;;;;;4.63;2.90;;;;;;;;;;5073659;28;20039;-59
2023/08/18 06:51:57;;;;;;;2.83;2.30;;;;;;;;;;5073376;28;20100;-59
2023/08/18 06:54:23;;;;;;;3.10;2.53;;;;;;;;;;5073475;28;20012;-60
2023/08/18 06:56:49;;;;;;;3.17;2.55;;;;;;;;;;5073514;28;20025;-61
2023/08/18 06:59:15;;;;;;;3.55;2.30;;;;;;;;;;5073141;28;20480;-60
2023/08/18 07:01:41;;;;;;;3.78;2.85;;;;;;;;;;5074063;28;20028;-60
2023/08/18 07:04:08;;;;;;;3.90;2.60;;;;;;;;;;5074180;28;20106;-60
2023/08/18 07:06:34;;;;;;;3.20;2.45;;;;;;;;;;5073952;28;20402;-60
2023/08/18 07:09:00;;;;;;;3.70;2.45;;;;;;;;;;5073449;28;20021;-60
2023/08/18 07:11:26;;;;;;;3.42;2.45;;;;;;;;;;5073697;28;20020;-60
2023/08/18 07:13:52;;;;;;;5.60;2.97;;;;;;;;;;5055248;28;20087;-59
2023/08/18 07:16:18;;;;;;;3.20;2.20;;;;;;;;;;5073825;28;20025;-58
2023/08/18 07:18:44;;;;;;;3.25;2.20;;;;;;;;;;5072909;28;20502;-60
2023/08/18 07:21:10;;;;;;;4.43;2.40;;;;;;;;;;5073255;28;20108;-60
2023/08/18 07:23:36;;;;;;;2.70;1.90;;;;;;;;;;5073386;28;20021;-60
2023/08/18 07:26:03;;;;;;;3.40;1.80;;;;;;;;;;5073215;28;20020;-60
2023/08/18 07:28:29;;;;;;;4.50;1.98;;;;;;;;;;5073440;28;20025;-60
2023/08/18 07:30:55;;;;;;;2.85;2.30;;;;;;;;;;5073833;28;20028;-60
2023/08/18 07:33:21;;;;;;;3.33;1.90;;;;;;;;;;5073195;28;20458;-60
2023/08/18 07:35:47;;;;;;;2.40;1.60;;;;;;;;;;5073505;28;20025;-59
2023/08/18 07:38:13;;;;;;;3.03;1.60;;;;;;;;;;5073077;28;20451;-60
2023/08/18 07:40:38;;;;;;;3.58;2.13;;;;;;;;;;5077821;28;20025;-60
2023/08/18 07:43:04;;;;;;;2.60;1.83;;;;;;;;;;5077695;28;20514;-60
2023/08/18 07:45:31;;;;;;;3.63;1.90;;;;;;;;;;5077396;28;20016;-58
2023/08/18 07:47:57;;;;;;;2.55;1.77;;;;;;;;;;5077398;28;20055;-59
2023/08/18 07:50:23;;;;;;;2.85;1.77;;;;;;;;;;5077615;28;20024;-59
2023/08/18 07:52:49;;;;;;;3.30;1.75;;;;;;;;;;5076698;28;20146;-59
2023/08/18 07:55:15;;;;;;;5.63;1.67;;;;;;;;;;5076709;28;20115;-59
2023/08/18 07:57:41;;;;;;;3.35;1.95;;;;;;;;;;5077203;28;20502;-59
2023/08/18 08:00:10;;;;;;;5.90;1.80;;;;;;;;;;5076934;28;20036;-59
2023/08/18 08:02:36;;;;;;;2.47;1.30;;;;;;;;;;5076546;28;20059;-59
2023/08/18 08:05:05;;;;;;;2.42;1.70;;;;;;;;;;5076499;28;20070;-59
2023/08/18 08:07:33;;;;;;;4.18;1.60;;;;;;;;;;5076433;28;20012;-59
2023/08/18 08:10:02;;;;;;;1.75;1.13;;;;;;;;;;5076976;28;20035;-59
2023/08/18 08:12:28;;;;;;;3.65;1.60;;;;;;;;;;5076929;28;20017;-59
2023/08/18 08:14:54;;;;;;;3.20;1.60;;;;;;;;;;5076499;28;20369;-59
2023/08/18 08:17:20;;;;;;;2.65;1.42;;;;;;;;;;5076645;28;20025;-59
2023/08/18 08:19:46;;;;;;;3.40;1.77;;;;;;;;;;5077109;28;20504;-59
2023/08/18 08:22:12;;;;;;;2.42;1.15;;;;;;;;;;5076956;28;20434;-59
2023/08/18 08:24:38;;;;;;;3.10;1.50;;;;;;;;;;5076693;28;20368;-59
2023/08/18 08:27:04;;;;;;;2.72;1.58;;;;;;;;;;5075862;28;20378;-59
2023/08/18 08:29:30;;;;;;;2.55;1.40;;;;;;;;;;5076963;28;20058;-59
2023/08/18 08:31:56;;;;;;;2.45;1.30;;;;;;;;;;5076263;28;20028;-59
2023/08/18 08:34:22;;;;;;;5.88;1.98;;;;;;;;;;5075760;28;20025;-59
2023/08/18 08:36:48;;;;;;;1.55;1.02;;;;;;;;;;5075775;28;20020;-60
2023/08/18 08:39:14;;;;;;;3.72;1.65;;;;;;;;;;5076026;28;20077;-58
2023/08/18 08:41:39;;;;;;;3.08;1.48;;;;;;;;;;5075344;28;20127;-60
2023/08/18 08:44:06;;;;;;;3.47;1.30;;;;;;;;;;5076379;28;20166;-59
2023/08/18 08:46:36;;;;;;;3.47;1.42;;;;;;;;;;5075846;28;20024;-59
2023/08/18 08:49:04;;;;;;;4.10;1.75;;;;;;;;;;5076378;28;20066;-60
2023/08/18 08:51:31;;;;;;;2.67;1.15;;;;;;;;;;5075094;28;20411;-60
2023/08/18 08:54:00;;;;;;;2.10;1.13;;;;;;;;;;5075841;28;20032;-60
2023/08/18 08:56:30;;;;;;;3.25;1.40;;;;;;;;;;5075857;28;20348;-60
2023/08/18 08:58:56;;;;;;;2.38;1.45;;;;;;;;;;5075547;28;20035;-59
2023/08/18 09:01:23;;;;;;;2.88;1.10;;;;;;;;;;5075487;28;20421;-59
2023/08/18 09:03:49;;;;;;;1.77;1.20;;;;;;;;;;5075896;28;20021;-59
2023/08/18 09:06:15;;;;;;;2.83;1.52;;;;;;;;;;5075379;28;20058;-59
2023/08/18 09:08:41;;;;;;;1.92;1.20;;;;;;;;;;5075225;28;20099;-59
2023/08/18 09:11:07;;;;;;;3.10;1.30;;;;;;;;;;5075776;28;20052;-59
2023/08/18 09:13:34;;;;;;;4.55;1.60;;;;;;;;;;5075154;28;20029;-59
2023/08/18 09:16:02;;;;;;;1.75;1.00;;;;;;;;;;5075189;28;20025;-59
2023/08/18 09:18:28;;;;;;;2.38;1.30;;;;;;;;;;5074994;28;20020;-59
2023/08/18 09:20:56;;;;;;;2.08;1.35;;;;;;;;;;5075703;28;20128;-59
2023/08/18 09:23:25;;;;;;;4.97;1.88;;;;;;;;;;5075047;28;20021;-60
2023/08/18 09:25:51;;;;;;;2.97;1.80;;;;;;;;;;5075000;28;20501;-60
2023/08/18 09:28:18;;;;;;;2.47;1.23;;;;;;;;;;5075146;28;20032;-60
2023/08/18 09:30:44;;;;;;;2.40;1.17;;;;;;;;;;5075530;28;20021;-60
2023/08/18 09:33:10;;;;;;;2.92;1.17;;;;;;;;;;5075213;28;20024;-60
2023/08/18 09:35:36;;;;;;;2.22;1.20;;;;;;;;;;5074876;28;20025;-60
2023/08/18 09:38:03;;;;;;;3.00;1.90;;;;;;;;;;5075050;28;20017;-60
2023/08/18 09:40:29;;;;;;;2.40;1.42;;;;;;;;;;5075238;28;20146;-60
2023/08/18 09:42:55;;;;;;;2.28;1.08;;;;;;;;;;5074868;28;20055;-60
2023/08/18 09:45:23;;;;;;;3.03;1.30;;;;;;;;;;5075107;28;20020;-60
2023/08/18 09:47:50;;;;;;;3.78;2.35;;;;;;;;;;5074316;28;20044;-60
2023/08/18 09:50:17;;;;;;;2.10;1.05;;;;;;;;;;5074590;28;20052;-60
2023/08/18 09:52:44;;;;;;;2.95;1.50;;;;;;;;;;5075115;28;20127;-60
2023/08/18 09:55:15;;;;;;;3.60;1.65;;;;;;;;;;5074431;28;20095;-60
2023/08/18 09:57:49;;;;;;;3.70;1.67;;;;;;;;;;5074431;28;20035;-60
2023/08/18 10:00:15;;;;;;;2.88;1.63;;;;;;;;;;5074697;28;20085;-60
2023/08/18 10:02:44;;;;;;;2.30;1.42;;;;;;;;;;5073789;28;20059;-60
2023/08/18 10:05:10;;;;;;;3.25;1.45;;;;;;;;;;5074257;28;20463;-60
2023/08/18 10:07:37;;;;;;;4.22;1.45;;;;;;;;;;5074089;28;20021;-60
2023/08/18 10:10:03;;;;;;;2.85;1.33;;;;;;;;;;5074037;28;20032;-60
2023/08/18 10:12:29;;;;;;;2.33;1.35;;;;;;;;;;5073931;28;20025;-60
2023/08/18 10:14:55;;;;;;;2.88;1.63;;;;;;;;;;5074084;28;20020;-60
2023/08/18 10:17:24;;;;;;;1.75;1.02;;;;;;;;;;5074790;28;20017;-60
2023/08/18 10:19:56;;;;;;;3.13;1.40;;;;;;;;;;5074185;28;20033;-60
2023/08/18 10:22:26;;;;;;;2.15;1.23;;;;;;;;;;5073927;28;20436;-60
2023/08/18 10:24:53;;;;;;;6.57;1.45;;;;;;;;;;5073861;28;20020;-60
2023/08/18 10:27:27;;;;;;;2.17;1.20;;;;;;;;;;5073815;28;20370;-60
2023/08/18 10:30:00;;;;;;;1.80;1.20;;;;;;;;;;5074218;28;20032;-60
2023/08/18 10:32:30;;;;;;;2.90;1.13;;;;;;;;;;5073916;28;20025;-60
2023/08/18 10:35:14;;;;;;;4.28;1.45;;;;;;;;;;5074331;28;20541;-60
2023/08/18 10:37:42;;;;;;;2.65;1.45;;;;;;;;;;5073734;28;20402;-60
2023/08/18 10:40:09;;;;;;;3.53;1.38;;;;;;;;;;5074486;28;20032;-60
2023/08/18 10:42:34;;;;;;;1.88;1.10;;;;;;;;;;5073603;28;20491;-60
2023/08/18 10:45:21;;;;;;;3.58;1.48;;;;;;;;;;5073984;28;20020;-60
2023/08/18 10:47:47;;;;;;;2.70;1.38;;;;;;;;;;5073898;28;20020;-60
2023/08/18 10:50:14;;;;;;;2.45;1.50;;;;;;;;;;5073831;28;20093;-60
2023/08/18 10:52:41;;;;;;;2.10;1.27;;;;;;;;;;5073490;28;20024;-60
2023/08/18 10:55:07;;;;;;;1.60;0.90;;;;;;;;;;5073802;28;20024;-60
2023/08/18 10:57:37;;;;;;;2.03;1.10;;;;;;;;;;5074054;28;20029;-60
2023/08/18 11:00:10;;;;;;;2.67;1.08;;;;;;;;;;5073698;28;20037;-60
2023/08/18 11:02:36;;;;;;;2.17;1.15;;;;;;;;;;5073548;28;20025;-60
2023/08/18 11:05:04;;;;;;;2.30;1.23;;;;;;;;;;5073856;28;20029;-60
2023/08/18 11:07:30;;;;;;;3.97;1.42;;;;;;;;;;5073966;28;20413;-60
2023/08/18 11:09:56;;;;;;;2.08;1.08;;;;;;;;;;5073909;28;20028;-60
2023/08/18 11:12:22;;;;;;;2.75;1.38;;;;;;;;;;5073980;28;20024;-60
2023/08/18 11:14:48;;;;;;;2.83;0.77;;;;;;;;;;5076054;28;20031;-60
2023/08/18 11:17:14;;;;;;;2.15;0.98;;;;;;;;;;5077800;28;20451;-61
2023/08/18 11:19:40;;;;;;;1.38;0.73;;;;;;;;;;5078151;28;20036;-60
2023/08/18 11:22:06;;;;;;;1.80;1.02;;;;;;;;;;5077735;28;20025;-60
2023/08/18 11:24:34;;;;;;;4.00;1.35;;;;;;;;;;5077704;28;20028;-60
2023/08/18 11:27:01;;;;;;;2.22;1.20;;;;;;;;;;5077298;28;20425;-60
2023/08/18 11:29:27;;;;;;;2.88;1.45;;;;;;;;;;5077845;28;20028;-60
2023/08/18 11:31:53;;;;;;;3.33;1.30;;;;;;;;;;5077745;28;20060;-60
2023/08/18 11:34:22;;;;;;;3.40;1.15;;;;;;;;;;5077578;28;20063;-60
2023/08/18 11:36:48;;;;;;;3.28;1.48;;;;;;;;;;5077323;28;20095;-60
2023/08/18 11:39:15;;;;;;;2.05;1.10;;;;;;;;;;5077097;28;20514;-60
2023/08/18 11:41:45;;;;;;;1.70;1.00;;;;;;;;;;5076602;28;20041;-61
2023/08/18 11:44:11;;;;;;;3.55;0.82;;;;;;;;;;5077128;28;20031;-60
2023/08/18 11:46:38;;;;;;;2.80;1.35;;;;;;;;;;5077379;28;20036;-60
2023/08/18 11:49:15;;;;;;;1.45;0.70;;;;;;;;;;5076957;28;20024;-60
2023/08/18 11:51:56;;;;;;;4.85;1.30;;;;;;;;;;5076874;28;20074;-60
2023/08/18 11:54:22;;;;;;;2.42;1.05;;;;;;;;;;5076750;28;20477;-60
2023/08/18 11:56:50;;;;;;;2.30;1.00;;;;;;;;;;5076701;28;20024;-60
2023/08/18 11:59:20;;;;;;;1.25;0.93;;;;;;;;;;5077115;28;20032;-60
2023/08/18 12:01:46;;;;;;;2.65;0.88;;;;;;;;;;5076609;28;20033;-60
2023/08/18 12:04:11;;;;;;;1.85;1.23;;;;;;;;;;5077437;28;20021;-60
2023/08/18 12:06:37;;;;;;;2.30;1.05;;;;;;;;;;5076560;28;20028;-61
2023/08/18 12:09:05;;;;;;;2.40;1.42;;;;;;;;;;5077087;28;20030;-61
2023/08/18 12:11:34;;;;;;;2.15;1.20;;;;;;;;;;5076331;28;20021;-60
2023/08/18 12:14:00;;;;;;;3.90;1.23;;;;;;;;;;5076916;28;20027;-60
2023/08/18 12:16:26;;;;;;;2.85;1.23;;;;;;;;;;5076853;28;20024;-60
2023/08/18 12:18:52;;;;;;;3.05;1.05;;;;;;;;;;5076252;28;20527;-60
2023/08/18 12:21:18;;;;;;;2.55;1.00;;;;;;;;;;5076630;28;20021;-60
2023/08/18 12:23:44;;;;;;;1.92;0.95;;;;;;;;;;5076146;28;20052;-60
2023/08/18 12:26:10;;;;;;;3.03;1.25;;;;;;;;;;5075670;28;20066;-60
2023/08/18 12:28:36;;;;;;;1.90;1.10;;;;;;;;;;5076887;28;20116;-60
2023/08/18 12:31:03;;;;;;;2.58;1.23;;;;;;;;;;5076010;28;20052;-60
2023/08/18 12:33:29;;;;;;;2.83;1.20;;;;;;;;;;5076071;28;20025;-60
2023/08/18 12:35:55;;;;;;;1.95;1.10;;;;;;;;;;5076763;28;20055;-60
2023/08/18 12:38:21;;;;;;;3.33;1.48;;;;;;;;;;5075827;28;20451;-60
2023/08/18 12:40:47;;;;;;;1.50;0.93;;;;;;;;;;5075866;28;20021;-60
2023/08/18 12:43:13;;;;;;;2.55;1.10;;;;;;;;;;5076641;28;20048;-60
2023/08/18 12:45:39;;;;;;;1.60;1.05;;;;;;;;;;5075859;28;20361;-60
2023/08/18 12:48:05;;;;;;;3.17;1.33;;;;;;;;;;5075727;28;20020;-60
2023/08/18 12:50:31;;;;;;;5.45;1.40;;;;;;;;;;5075995;28;20024;-61
2023/08/18 12:52:57;;;;;;;3.13;1.20;;;;;;;;;;5075960;28;20031;-61
2023/08/18 12:55:23;;;;;;;2.00;0.88;;;;;;;;;;5075419;28;20021;-61
2023/08/18 12:57:49;;;;;;;3.20;1.25;;;;;;;;;;5075825;28;20024;-61
2023/08/18 13:00:15;;;;;;;3.58;1.35;;;;;;;;;;5075809;28;20035;-61
2023/08/18 13:02:41;;;;;;;2.20;1.13;;;;;;;;;;5075770;28;20051;-61
2023/08/18 13:05:07;;;;;;;2.90;1.20;;;;;;;;;;5075537;28;20467;-60
2023/08/18 13:07:33;;;;;;;1.90;1.02;;;;;;;;;;5075160;28;20029;-60
2023/08/18 13:09:59;;;;;;;4.32;1.38;;;;;;;;;;5075418;28;20032;-60
2023/08/18 13:12:25;;;;;;;2.53;1.35;;;;;;;;;;5075579;28;20450;-60
2023/08/18 13:14:51;;;;;;;5.35;1.60;;;;;;;;;;5074982;28;20374;-60
2023/08/18 13:17:17;;;;;;;2.45;1.42;;;;;;;;;;5075622;28;20028;-60
2023/08/18 13:19:43;;;;;;;6.25;2.03;;;;;;;;;;5075466;28;20028;-60
2023/08/18 13:22:09;;;;;;;3.50;1.38;;;;;;;;;;5075174;28;20462;-60
2023/08/18 13:24:35;;;;;;;2.30;1.30;;;;;;;;;;5075090;28;20104;-60
2023/08/18 13:27:01;;;;;;;2.17;1.00;;;;;;;;;;5075062;28;20040;-60
2023/08/18 13:29:27;;;;;;;3.80;1.33;;;;;;;;;;5075096;28;20029;-60
2023/08/18 13:31:53;;;;;;;3.53;1.95;;;;;;;;;;5075022;28;20076;-60
2023/08/18 13:34:19;;;;;;;2.88;0.90;;;;;;;;;;5075154;28;20121;-60
2023/08/18 13:36:45;;;;;;;2.83;1.70;;;;;;;;;;5074667;28;20113;-60
2023/08/18 13:39:10;;;;;;;5.10;1.50;;;;;;;;;;5075042;28;20028;-60
2023/08/18 13:41:38;;;;;;;6.45;1.83;;;;;;;;;;5075087;28;20382;-60
2023/08/18 13:44:04;;;;;;;1.67;0.90;;;;;;;;;;5074747;28;20024;-60
2023/08/18 13:46:30;;;;;;;6.68;1.17;;;;;;;;;;5074671;28;20031;-60
2023/08/18 13:48:56;;;;;;;6.38;1.63;;;;;;;;;;5075409;28;20025;-60
2023/08/18 13:51:22;;;;;;;2.95;1.52;;;;;;;;;;5074610;28;20023;-60
2023/08/18 13:53:48;;;;;;;4.00;1.73;;;;;;;;;;5074534;28;20021;-60
2023/08/18 13:56:14;;;;;;;3.22;1.80;;;;;;;;;;5074942;28;20020;-60
2023/08/18 13:58:40;;;;;;;3.78;1.45;;;;;;;;;;5074000;28;20020;-60
2023/08/18 14:01:06;;;;;;;2.63;1.40;;;;;;;;;;5074382;28;20027;-60
2023/08/18 14:03:32;;;;;;;2.15;1.10;;;;;;;;;;5074790;28;20021;-60
2023/08/18 14:05:59;;;;;;;3.55;1.60;;;;;;;;;;5074284;28;20020;-60
2023/08/18 14:08:25;;;;;;;2.13;0.75;;;;;;;;;;5073958;28;20078;-60
2023/08/18 14:10:51;;;;;;;3.55;1.33;;;;;;;;;;5074780;28;20029;-60
2023/08/18 14:13:16;;;;;;;2.22;1.13;;;;;;;;;;5074098;28;20024;-60
2023/08/18 14:15:43;;;;;;;1.52;0.85;;;;;;;;;;5074378;28;20135;-60
2023/08/18 14:18:11;;;;;;;4.70;1.00;;;;;;;;;;5074793;28;20044;-60
2023/08/18 14:20:37;;;;;;;2.38;1.20;;;;;;;;;;5074629;28;20379;-60
2023/08/18 14:23:03;;;;;;;2.20;1.17;;;;;;;;;;5073988;28;20025;-60
2023/08/18 14:25:29;;;;;;;2.75;1.02;;;;;;;;;;5074294;28;20406;-60
2023/08/18 14:27:55;;;;;;;1.80;1.10;;;;;;;;;;5074219;28;20025;-60
2023/08/18 14:30:21;;;;;;;2.67;1.30;;;;;;;;;;5074731;28;20070;-60
2023/08/18 14:32:48;;;;;;;5.05;1.65;;;;;;;;;;5073913;28;20104;-60
2023/08/18 14:35:14;;;;;;;5.15;1.30;;;;;;;;;;5074607;28;20029;-60
2023/08/18 14:37:40;;;;;;;4.13;1.45;;;;;;;;;;5073659;28;20027;-60
2023/08/18 14:40:10;;;;;;;3.20;1.80;;;;;;;;;;5073680;28;20029;-60